Time;durP1;ratioP1;P1;durP2;ratioP2;P2;SDS_P1;SDS_P2;PMS_P1;PMS_P2;Temp;Humidity;BMP_temperature;BMP_pressure;BME280_temperature;BME280_humidity;BME280_pressure;Samples;Min_cycle;Max_cycle;Signal;HPM_P1;HPM_P2
2021/04/26 00:03:14;;;;;;;7.40;3.20;;;;;;;;;;10481443;28;20215;-68
2021/04/26 00:08:17;;;;;;;9.73;3.47;;;;;;;;;;10478369;28;20196;-70
2021/04/26 00:13:18;;;;;;;7.20;3.27;;;;;;;;;;10472427;28;20633;-69
2021/04/26 00:18:20;;;;;;;7.60;3.00;;;;;;;;;;10482018;28;20279;-69
2021/04/26 00:23:23;;;;;;;7.17;3.50;;;;;;;;;;10481802;28;20648;-70
2021/04/26 00:28:24;;;;;;;6.43;3.20;;;;;;;;;;10481747;28;20200;-70
2021/04/26 00:33:26;;;;;;;7.67;3.33;;;;;;;;;;10484173;28;20266;-70
2021/04/26 00:38:29;;;;;;;8.10;3.90;;;;;;;;;;10474545;28;20257;-70
2021/04/26 00:43:31;;;;;;;9.03;3.80;;;;;;;;;;10474814;28;20256;-69
2021/04/26 00:48:32;;;;;;;7.43;3.90;;;;;;;;;;10476638;28;20204;-69
2021/04/26 00:53:35;;;;;;;8.43;3.97;;;;;;;;;;10482621;28;20431;-69
2021/04/26 00:58:37;;;;;;;7.80;3.37;;;;;;;;;;10491165;28;20195;-70
2021/04/26 01:03:42;;;;;;;9.97;3.83;;;;;;;;;;10478395;28;20296;-70
2021/04/26 01:08:44;;;;;;;8.10;4.20;;;;;;;;;;10486907;28;20196;-68
2021/04/26 01:13:50;;;;;;;8.73;4.00;;;;;;;;;;10480279;28;20576;-70
2021/04/26 01:18:56;;;;;;;8.50;3.83;;;;;;;;;;10488922;28;20219;-70
2021/04/26 01:24:08;;;;;;;7.77;3.70;;;;;;;;;;10486115;28;20723;-69
2021/04/26 01:29:14;;;;;;;9.37;3.70;;;;;;;;;;10487878;28;20242;-69
2021/04/26 01:34:16;;;;;;;7.70;3.50;;;;;;;;;;10488871;28;20220;-69
2021/04/26 01:39:18;;;;;;;7.33;3.50;;;;;;;;;;10484020;28;20265;-69
2021/04/26 01:44:21;;;;;;;10.30;4.13;;;;;;;;;;10477113;28;20231;-70
2021/04/26 01:49:23;;;;;;;9.13;3.97;;;;;;;;;;10485833;28;20240;-69
2021/04/26 01:54:26;;;;;;;8.57;4.07;;;;;;;;;;10485208;28;20219;-69
2021/04/26 01:59:28;;;;;;;9.40;4.37;;;;;;;;;;10481270;28;20217;-69
2021/04/26 02:04:32;;;;;;;9.60;4.07;;;;;;;;;;10482220;28;20246;-69
2021/04/26 02:09:38;;;;;;;8.53;4.43;;;;;;;;;;10485946;28;20204;-70
2021/04/26 02:14:41;;;;;;;9.20;4.00;;;;;;;;;;10484706;28;20216;-69
2021/04/26 02:19:43;;;;;;;10.57;4.27;;;;;;;;;;10483452;28;20248;-69
2021/04/26 02:24:45;;;;;;;9.30;4.03;;;;;;;;;;10486309;28;20272;-69
2021/04/26 02:29:46;;;;;;;8.20;3.97;;;;;;;;;;10484210;28;20250;-69
2021/04/26 02:34:49;;;;;;;8.53;4.67;;;;;;;;;;10486147;28;20216;-69
2021/04/26 02:39:52;;;;;;;9.97;4.50;;;;;;;;;;10478849;28;20645;-70
2021/04/26 02:44:55;;;;;;;9.47;4.20;;;;;;;;;;10482958;28;20204;-67
2021/04/26 02:50:00;;;;;;;8.87;4.33;;;;;;;;;;10483126;28;20220;-70
2021/04/26 02:55:02;;;;;;;8.13;4.03;;;;;;;;;;10482802;28;20192;-70
2021/04/26 03:00:05;;;;;;;9.70;3.90;;;;;;;;;;10483425;28;20208;-69
2021/04/26 03:05:08;;;;;;;11.17;4.17;;;;;;;;;;10484846;28;20279;-70
2021/04/26 03:10:13;;;;;;;9.30;4.30;;;;;;;;;;10477993;28;20231;-70
2021/04/26 03:15:16;;;;;;;9.37;4.47;;;;;;;;;;10485366;28;20295;-67
2021/04/26 03:20:20;;;;;;;8.60;4.47;;;;;;;;;;10477374;28;20211;-70
2021/04/26 03:25:22;;;;;;;8.53;4.13;;;;;;;;;;10514922;28;20205;-69
2021/04/26 03:30:24;;;;;;;8.17;4.40;;;;;;;;;;10484081;28;20605;-70
2021/04/26 03:35:27;;;;;;;10.60;4.57;;;;;;;;;;10478348;28;20204;-70
2021/04/26 03:40:28;;;;;;;8.97;4.70;;;;;;;;;;10481710;28;20739;-70
2021/04/26 03:45:30;;;;;;;9.30;4.60;;;;;;;;;;10481409;28;20580;-70
2021/04/26 03:50:33;;;;;;;8.97;4.67;;;;;;;;;;10481252;28;20266;-69
2021/04/26 03:55:34;;;;;;;9.87;4.63;;;;;;;;;;10480591;28;20219;-68
2021/04/26 04:00:36;;;;;;;8.70;4.70;;;;;;;;;;10481840;28;20752;-70
2021/04/26 04:05:38;;;;;;;11.10;4.30;;;;;;;;;;10481914;28;20212;-70
2021/04/26 04:10:40;;;;;;;10.37;4.40;;;;;;;;;;10481140;28;20228;-70
2021/04/26 04:15:41;;;;;;;11.37;4.90;;;;;;;;;;10482571;28;20200;-69
2021/04/26 04:20:44;;;;;;;9.20;4.60;;;;;;;;;;10477250;28;20303;-69
2021/04/26 04:25:45;;;;;;;10.13;5.10;;;;;;;;;;10470406;28;20552;-70
2021/04/26 04:30:47;;;;;;;10.43;5.13;;;;;;;;;;10478897;28;20229;-70
2021/04/26 04:35:49;;;;;;;10.43;5.00;;;;;;;;;;10463807;28;20650;-71
2021/04/26 04:40:51;;;;;;;10.07;5.17;;;;;;;;;;10488216;28;20208;-71
2021/04/26 04:45:53;;;;;;;10.20;4.73;;;;;;;;;;10488973;28;20287;-69
2021/04/26 04:50:55;;;;;;;7.53;4.43;;;;;;;;;;10480538;28;20564;-70
2021/04/26 04:55:57;;;;;;;9.10;4.80;;;;;;;;;;10489405;28;20188;-72
2021/04/26 05:00:58;;;;;;;8.60;4.60;;;;;;;;;;10536503;27;20294;-70
2021/04/26 05:06:01;;;;;;;9.10;4.60;;;;;;;;;;10499664;28;20260;-71
2021/04/26 05:11:02;;;;;;;9.03;4.43;;;;;;;;;;10486427;28;20274;-71
2021/04/26 05:16:04;;;;;;;11.90;5.13;;;;;;;;;;10504170;28;20216;-72
2021/04/26 05:21:07;;;;;;;10.73;4.83;;;;;;;;;;10474754;28;20231;-70
2021/04/26 05:26:08;;;;;;;10.00;5.00;;;;;;;;;;10472573;28;20195;-70
2021/04/26 05:31:10;;;;;;;9.47;4.33;;;;;;;;;;10480897;28;20287;-72
2021/04/26 05:36:12;;;;;;;11.63;4.37;;;;;;;;;;10487317;28;20529;-71
2021/04/26 05:41:14;;;;;;;8.60;4.70;;;;;;;;;;10480034;28;20671;-69
2021/04/26 05:46:16;;;;;;;8.67;4.37;;;;;;;;;;10482808;28;20658;-70
2021/04/26 05:51:18;;;;;;;12.17;4.73;;;;;;;;;;10480857;28;20571;-71
2021/04/26 05:56:20;;;;;;;14.80;4.83;;;;;;;;;;10512890;28;20200;-70
2021/04/26 06:01:21;;;;;;;9.57;4.60;;;;;;;;;;10481755;28;20219;-71
2021/04/26 06:06:24;;;;;;;8.63;4.80;;;;;;;;;;10487939;28;20197;-71
2021/04/26 06:11:25;;;;;;;10.63;4.90;;;;;;;;;;10483074;28;20227;-71
2021/04/26 06:16:27;;;;;;;9.10;4.53;;;;;;;;;;10478844;28;20197;-72
2021/04/26 06:21:30;;;;;;;9.90;4.70;;;;;;;;;;10480301;28;20246;-72
2021/04/26 06:26:31;;;;;;;11.63;4.40;;;;;;;;;;10477543;28;20267;-71
2021/04/26 06:31:33;;;;;;;10.87;4.43;;;;;;;;;;10487670;28;20228;-71
2021/04/26 06:36:36;;;;;;;13.57;5.17;;;;;;;;;;10481389;28;20254;-70
2021/04/26 06:41:37;;;;;;;8.47;4.20;;;;;;;;;;10473436;28;20211;-71
2021/04/26 06:46:39;;;;;;;10.20;4.33;;;;;;;;;;10485139;28;20200;-70
2021/04/26 06:51:42;;;;;;;11.17;4.57;;;;;;;;;;10482677;28;20692;-71
2021/04/26 06:56:45;;;;;;;10.33;4.10;;;;;;;;;;10484236;28;20188;-70
2021/04/26 07:01:46;;;;;;;10.53;4.27;;;;;;;;;;10479797;28;20266;-72
2021/04/26 07:06:49;;;;;;;10.03;4.33;;;;;;;;;;10485855;28;20246;-71
2021/04/26 07:11:50;;;;;;;9.67;4.40;;;;;;;;;;10480790;28;20255;-72
2021/04/26 07:16:52;;;;;;;9.53;4.03;;;;;;;;;;10486517;28;20204;-71
2021/04/26 07:21:55;;;;;;;10.00;4.40;;;;;;;;;;10477949;28;20265;-72
2021/04/26 07:26:57;;;;;;;7.90;3.83;;;;;;;;;;10475780;28;20192;-71
2021/04/26 07:31:59;;;;;;;8.87;4.70;;;;;;;;;;10516961;28;20592;-71
2021/04/26 07:37:02;;;;;;;9.82;4.70;;;;;;;;;;10479521;28;20305;-72
2021/04/26 07:42:04;;;;;;;8.25;5.18;;;;;;;;;;10482162;28;20737;-72
2021/04/26 07:47:07;;;;;;;9.50;5.03;;;;;;;;;;10482789;28;20216;-70
2021/04/26 07:52:09;;;;;;;8.27;4.65;;;;;;;;;;10509391;28;20220;-70
2021/04/26 07:57:11;;;;;;;7.20;4.68;;;;;;;;;;10483367;28;20636;-71
2021/04/26 08:02:12;;;;;;;9.80;5.22;;;;;;;;;;10476728;28;20319;-72
2021/04/26 08:07:15;;;;;;;9.85;5.38;;;;;;;;;;10492566;28;20632;-71
2021/04/26 08:12:18;;;;;;;8.18;4.63;;;;;;;;;;10488285;28;20587;-72
2021/04/26 08:17:19;;;;;;;8.27;4.90;;;;;;;;;;10491868;28;20212;-71
2021/04/26 08:22:22;;;;;;;9.32;5.22;;;;;;;;;;10486611;28;20215;-72
2021/04/26 08:27:23;;;;;;;9.25;5.03;;;;;;;;;;10490049;28;20196;-72
2021/04/26 08:32:25;;;;;;;8.73;5.00;;;;;;;;;;10492703;28;20239;-71
2021/04/26 08:37:27;;;;;;;7.63;4.97;;;;;;;;;;10471515;28;20296;-73
2021/04/26 08:42:29;;;;;;;9.55;5.15;;;;;;;;;;10492958;28;20533;-72
2021/04/26 08:47:31;;;;;;;9.38;4.78;;;;;;;;;;10486751;28;20200;-72
2021/04/26 08:52:34;;;;;;;8.15;4.72;;;;;;;;;;10486527;28;20249;-72
2021/04/26 08:57:35;;;;;;;8.15;4.95;;;;;;;;;;10488123;28;20209;-72
2021/04/26 09:02:44;;;;;;;13.10;5.05;;;;;;;;;;10489089;28;20258;-69
2021/04/26 09:07:49;;;;;;;18.08;5.90;;;;;;;;;;10484402;28;20239;-71
2021/04/26 09:12:50;;;;;;;11.60;5.47;;;;;;;;;;10483427;28;20224;-72
2021/04/26 09:17:53;;;;;;;8.75;4.43;;;;;;;;;;10486757;28;20551;-72
2021/04/26 09:22:57;;;;;;;8.50;4.68;;;;;;;;;;10479788;28;20367;-72
2021/04/26 09:28:00;;;;;;;9.73;4.38;;;;;;;;;;10487055;28;20193;-72
2021/04/26 09:33:22;;;;;;;8.23;4.30;;;;;;;;;;10490787;28;20304;-73
2021/04/26 09:38:26;;;;;;;7.82;4.10;;;;;;;;;;10480432;28;20202;-72
2021/04/26 09:43:27;;;;;;;7.18;4.60;;;;;;;;;;10482358;28;20204;-72
2021/04/26 09:48:30;;;;;;;8.07;4.55;;;;;;;;;;10481621;28;20675;-73
2021/04/26 09:53:33;;;;;;;7.63;4.03;;;;;;;;;;10482744;28;20227;-73
2021/04/26 09:58:35;;;;;;;8.15;4.78;;;;;;;;;;10484944;28;20292;-73
2021/04/26 10:03:37;;;;;;;8.35;4.00;;;;;;;;;;10487632;28;20221;-73
2021/04/26 10:08:40;;;;;;;7.93;4.15;;;;;;;;;;10486937;28;20211;-73
2021/04/26 10:13:43;;;;;;;7.30;4.18;;;;;;;;;;10488220;28;20641;-71
2021/04/26 10:18:46;;;;;;;6.90;4.07;;;;;;;;;;10483750;28;20268;-71
2021/04/26 10:23:50;;;;;;;7.82;4.32;;;;;;;;;;10478672;28;20208;-71
2021/04/26 10:29:06;;;;;;;7.57;4.60;;;;;;;;;;10480925;28;20604;-70
2021/04/26 10:34:11;;;;;;;7.70;4.40;;;;;;;;;;10488814;28;20224;-71
2021/04/26 10:39:15;;;;;;;7.85;4.43;;;;;;;;;;10484423;28;20624;-70
2021/04/26 10:44:37;;;;;;;8.27;4.07;;;;;;;;;;10485805;28;20220;-69
2021/04/26 10:49:40;;;;;;;7.10;4.47;;;;;;;;;;10481720;28;20212;-72
2021/04/26 10:54:44;;;;;;;6.55;4.40;;;;;;;;;;10480127;28;20228;-72
2021/04/26 10:59:46;;;;;;;6.65;4.25;;;;;;;;;;10486608;28;20206;-71
2021/04/26 11:05:03;;;;;;;7.60;4.43;;;;;;;;;;10483360;28;20184;-72
2021/04/26 11:10:19;;;;;;;6.68;4.32;;;;;;;;;;10481253;28;20227;-71
2021/04/26 11:15:23;;;;;;;7.05;4.20;;;;;;;;;;10482166;28;20219;-70
2021/04/26 11:20:25;;;;;;;7.00;4.28;;;;;;;;;;10480413;28;20220;-71
2021/04/26 11:25:31;;;;;;;7.28;4.50;;;;;;;;;;10474751;28;20202;-71
2021/04/26 11:30:34;;;;;;;9.00;4.43;;;;;;;;;;10486002;28;20617;-70
2021/04/26 11:35:37;;;;;;;6.28;4.53;;;;;;;;;;10485221;28;20442;-71
2021/04/26 11:40:39;;;;;;;7.47;4.25;;;;;;;;;;10492477;28;20680;-72
2021/04/26 11:45:45;;;;;;;8.35;5.30;;;;;;;;;;10481741;28;20188;-72
2021/04/26 11:50:47;;;;;;;8.13;4.22;;;;;;;;;;10478729;28;20300;-71
2021/04/26 11:55:49;;;;;;;6.80;4.15;;;;;;;;;;10476560;28;20192;-70
2021/04/26 12:00:52;;;;;;;12.80;5.40;;;;;;;;;;10476404;28;20205;-71
2021/04/26 12:05:54;;;;;;;7.35;3.90;;;;;;;;;;10483338;28;20192;-70
2021/04/26 12:10:55;;;;;;;7.05;4.30;;;;;;;;;;10477941;28;20212;-72
2021/04/26 12:15:58;;;;;;;7.70;4.07;;;;;;;;;;10483153;28;20184;-72
2021/04/26 12:20:59;;;;;;;7.30;4.05;;;;;;;;;;10474309;28;20208;-74
2021/04/26 12:26:01;;;;;;;6.85;4.10;;;;;;;;;;10476390;28;20192;-72
2021/04/26 12:31:03;;;;;;;6.50;3.70;;;;;;;;;;10479514;28;20349;-70
2021/04/26 12:36:07;;;;;;;6.90;4.05;;;;;;;;;;10480820;28;20193;-72
2021/04/26 12:41:12;;;;;;;6.97;4.40;;;;;;;;;;10475315;28;20607;-69
2021/04/26 12:46:16;;;;;;;7.32;4.20;;;;;;;;;;10485838;28;20197;-71
2021/04/26 12:51:28;;;;;;;6.47;4.28;;;;;;;;;;10484145;28;20237;-71
2021/04/26 12:56:31;;;;;;;8.43;4.10;;;;;;;;;;10478018;28;20266;-72
2021/04/26 13:01:33;;;;;;;6.82;4.40;;;;;;;;;;10484651;28;20848;-70
2021/04/26 13:06:37;;;;;;;8.98;4.32;;;;;;;;;;10486451;28;20279;-71
2021/04/26 13:11:39;;;;;;;8.45;4.40;;;;;;;;;;10484002;28;20215;-71
2021/04/26 13:16:43;;;;;;;7.65;3.88;;;;;;;;;;10482262;28;20220;-71
2021/04/26 13:21:45;;;;;;;8.07;4.00;;;;;;;;;;10484363;28;20236;-71
2021/04/26 13:26:55;;;;;;;6.47;3.70;;;;;;;;;;10487252;28;20224;-71
2021/04/26 13:31:59;;;;;;;6.93;4.20;;;;;;;;;;10488458;28;20219;-71
2021/04/26 13:37:01;;;;;;;7.43;4.20;;;;;;;;;;10488461;28;20668;-71
2021/04/26 13:42:05;;;;;;;7.45;4.20;;;;;;;;;;10486929;28;20216;-71
2021/04/26 13:47:07;;;;;;;8.65;5.03;;;;;;;;;;10487388;28;20313;-70
2021/04/26 13:52:10;;;;;;;8.55;4.60;;;;;;;;;;10484100;28;20687;-70
2021/04/26 13:57:12;;;;;;;7.03;4.65;;;;;;;;;;10480633;28;20543;-70
2021/04/26 14:02:15;;;;;;;7.50;4.38;;;;;;;;;;10484075;28;20212;-70
2021/04/26 14:07:17;;;;;;;8.27;4.72;;;;;;;;;;10475016;28;20311;-68
2021/04/26 14:12:18;;;;;;;9.43;4.22;;;;;;;;;;10485906;28;20664;-69
2021/04/26 14:17:21;;;;;;;9.35;5.03;;;;;;;;;;10481181;28;20192;-70
2021/04/26 14:22:23;;;;;;;7.68;3.92;;;;;;;;;;10482116;28;20224;-70
2021/04/26 14:27:24;;;;;;;6.55;4.25;;;;;;;;;;10509752;28;20197;-70
2021/04/26 14:32:27;;;;;;;7.53;3.93;;;;;;;;;;10487447;28;20216;-69
2021/04/26 14:37:29;;;;;;;8.13;4.53;;;;;;;;;;10480386;28;20567;-72
2021/04/26 14:42:30;;;;;;;9.45;3.90;;;;;;;;;;10487834;28;20208;-71
2021/04/26 14:47:33;;;;;;;7.18;3.83;;;;;;;;;;10476660;28;20239;-69
2021/04/26 14:52:35;;;;;;;9.45;3.70;;;;;;;;;;10481298;28;20219;-72
2021/04/26 14:57:36;;;;;;;8.80;4.13;;;;;;;;;;10479381;28;20241;-69
2021/04/26 15:02:39;;;;;;;7.33;4.20;;;;;;;;;;10477803;28;20322;-69
2021/04/26 15:07:42;;;;;;;7.03;4.00;;;;;;;;;;10480356;28;20277;-70
2021/04/26 15:12:44;;;;;;;7.43;3.93;;;;;;;;;;10475369;28;20586;-69
2021/04/26 15:17:46;;;;;;;9.33;4.00;;;;;;;;;;10486071;28;20478;-70
2021/04/26 15:23:06;;;;;;;8.13;3.97;;;;;;;;;;10480152;28;20291;-70
2021/04/26 15:28:08;;;;;;;7.07;4.03;;;;;;;;;;10486000;28;20204;-71
2021/04/26 15:33:12;;;;;;;8.63;4.40;;;;;;;;;;10485996;28;20227;-70
2021/04/26 15:38:13;;;;;;;8.30;4.23;;;;;;;;;;10484204;28;20226;-71
2021/04/26 15:43:15;;;;;;;9.17;4.60;;;;;;;;;;10482055;28;20291;-71
2021/04/26 15:48:18;;;;;;;10.17;4.50;;;;;;;;;;10472485;28;20321;-70
2021/04/26 15:53:20;;;;;;;8.23;4.13;;;;;;;;;;10482203;28;20631;-72
2021/04/26 15:58:21;;;;;;;8.90;4.50;;;;;;;;;;10481257;28;20212;-71
2021/04/26 16:03:24;;;;;;;8.73;4.20;;;;;;;;;;10485698;28;20208;-71
2021/04/26 16:08:26;;;;;;;8.37;4.00;;;;;;;;;;10482501;28;20240;-71
2021/04/26 16:13:27;;;;;;;9.03;4.33;;;;;;;;;;10476651;28;20754;-71
2021/04/26 16:18:30;;;;;;;10.57;4.50;;;;;;;;;;10516228;28;20176;-71
2021/04/26 16:23:32;;;;;;;8.83;4.40;;;;;;;;;;10528350;28;20216;-71
2021/04/26 16:28:34;;;;;;;8.30;3.97;;;;;;;;;;10532326;28;20203;-70
2021/04/26 16:33:36;;;;;;;10.53;4.00;;;;;;;;;;10505508;28;20606;-71
2021/04/26 16:38:38;;;;;;;8.60;4.23;;;;;;;;;;10492083;28;20363;-69
2021/04/26 16:43:40;;;;;;;9.43;4.50;;;;;;;;;;10510381;28;20260;-71
2021/04/26 16:48:42;;;;;;;8.23;4.40;;;;;;;;;;10464473;28;20180;-70
2021/04/26 16:53:44;;;;;;;7.90;4.33;;;;;;;;;;10462271;28;20246;-70
2021/04/26 16:58:46;;;;;;;7.03;3.83;;;;;;;;;;10467831;28;20222;-71
2021/04/26 17:03:48;;;;;;;10.47;4.13;;;;;;;;;;10472119;28;20352;-70
2021/04/26 17:08:52;;;;;;;8.37;4.10;;;;;;;;;;10468051;28;20195;-71
2021/04/26 17:13:55;;;;;;;7.23;3.67;;;;;;;;;;10474460;28;20663;-71
2021/04/26 17:18:57;;;;;;;7.33;3.87;;;;;;;;;;10468366;28;20563;-69
2021/04/26 17:24:02;;;;;;;10.10;4.60;;;;;;;;;;10467075;28;20632;-70
2021/04/26 17:29:04;;;;;;;8.03;4.30;;;;;;;;;;10477469;28;20540;-69
2021/04/26 17:34:07;;;;;;;9.10;4.17;;;;;;;;;;10476470;28;20212;-70
2021/04/26 17:39:08;;;;;;;7.50;4.07;;;;;;;;;;10462117;28;20196;-70
2021/04/26 17:44:10;;;;;;;9.07;4.00;;;;;;;;;;10487464;28;20247;-72
2021/04/26 17:49:13;;;;;;;7.83;4.13;;;;;;;;;;10486890;28;20543;-73
2021/04/26 17:54:15;;;;;;;10.03;4.10;;;;;;;;;;10483040;28;20660;-72
2021/04/26 17:59:16;;;;;;;11.07;5.07;;;;;;;;;;10483576;28;20224;-73
2021/04/26 18:04:19;;;;;;;9.97;5.03;;;;;;;;;;10485391;28;20734;-72
2021/04/26 18:09:23;;;;;;;9.77;4.37;;;;;;;;;;10477103;28;20189;-72
2021/04/26 18:14:25;;;;;;;10.60;4.70;;;;;;;;;;10471049;28;20401;-72
2021/04/26 18:19:27;;;;;;;8.03;4.30;;;;;;;;;;10483239;28;20283;-72
2021/04/26 18:24:29;;;;;;;10.13;4.50;;;;;;;;;;10485770;28;20304;-72
2021/04/26 18:29:30;;;;;;;10.17;4.80;;;;;;;;;;10480912;28;20220;-73
2021/04/26 18:34:33;;;;;;;9.77;4.73;;;;;;;;;;10485584;28;20644;-73
2021/04/26 18:39:34;;;;;;;11.53;4.40;;;;;;;;;;10479376;28;20224;-73
2021/04/26 18:44:36;;;;;;;9.03;4.90;;;;;;;;;;10483785;28;20223;-72
2021/04/26 18:49:38;;;;;;;11.57;4.87;;;;;;;;;;10485299;28;20200;-73
2021/04/26 18:54:40;;;;;;;11.50;6.13;;;;;;;;;;10486112;28;20224;-73
2021/04/26 18:59:41;;;;;;;12.50;5.20;;;;;;;;;;10485520;28;20200;-72
2021/04/26 19:04:44;;;;;;;10.97;5.37;;;;;;;;;;10486476;28;20537;-73
2021/04/26 19:09:45;;;;;;;9.67;5.53;;;;;;;;;;10482482;28;20200;-71
2021/04/26 19:14:47;;;;;;;9.67;5.37;;;;;;;;;;10476862;28;20307;-74
2021/04/26 19:19:50;;;;;;;10.03;5.07;;;;;;;;;;10486452;28;20659;-72
2021/04/26 19:24:52;;;;;;;9.00;4.30;;;;;;;;;;10477045;28;20795;-72
2021/04/26 19:29:53;;;;;;;10.17;4.80;;;;;;;;;;10487453;28;20652;-74
2021/04/26 19:34:56;;;;;;;10.00;4.73;;;;;;;;;;10483534;28;20240;-72
2021/04/26 19:39:57;;;;;;;10.83;4.73;;;;;;;;;;10479126;28;20202;-71
2021/04/26 19:44:59;;;;;;;9.40;4.10;;;;;;;;;;10484389;28;20755;-73
2021/04/26 19:50:01;;;;;;;10.00;4.27;;;;;;;;;;10512261;28;20266;-72
2021/04/26 19:55:04;;;;;;;8.13;4.57;;;;;;;;;;10486345;28;20438;-71
2021/04/26 20:00:06;;;;;;;8.73;4.43;;;;;;;;;;10470530;28;20611;-74
2021/04/26 20:05:09;;;;;;;10.27;4.30;;;;;;;;;;10473917;28;20220;-72
2021/04/26 20:10:11;;;;;;;8.47;4.00;;;;;;;;;;10502596;28;20583;-73
2021/04/26 20:15:13;;;;;;;9.90;4.70;;;;;;;;;;10466966;28;20219;-73
2021/04/26 20:20:16;;;;;;;9.10;4.60;;;;;;;;;;10479051;28;20216;-70
2021/04/26 20:25:18;;;;;;;13.50;5.03;;;;;;;;;;10473874;28;20214;-70
2021/04/26 20:30:21;;;;;;;10.37;4.70;;;;;;;;;;10471104;28;20212;-73
2021/04/26 20:35:24;;;;;;;9.80;4.53;;;;;;;;;;10494454;28;20255;-73
2021/04/26 20:40:26;;;;;;;9.20;4.33;;;;;;;;;;10495247;28;20286;-73
2021/04/26 20:45:28;;;;;;;9.30;4.90;;;;;;;;;;10501592;28;20279;-73
2021/04/26 20:50:34;;;;;;;9.47;4.70;;;;;;;;;;10493717;28;20697;-70
2021/04/26 20:55:35;;;;;;;11.07;4.90;;;;;;;;;;10494941;28;20796;-72
2021/04/26 21:00:37;;;;;;;8.90;4.90;;;;;;;;;;10498452;28;20295;-72
2021/04/26 21:05:39;;;;;;;8.67;4.53;;;;;;;;;;10487523;28;20200;-70
2021/04/26 21:10:41;;;;;;;10.87;4.40;;;;;;;;;;10502516;28;20265;-71
2021/04/26 21:15:43;;;;;;;7.67;3.70;;;;;;;;;;10488975;28;20269;-71
2021/04/26 21:20:45;;;;;;;10.17;4.27;;;;;;;;;;10491801;28;20212;-72
2021/04/26 21:25:47;;;;;;;10.60;3.77;;;;;;;;;;10493087;28;20649;-72
2021/04/26 21:30:48;;;;;;;8.30;4.10;;;;;;;;;;10490423;28;20207;-72
2021/04/26 21:35:51;;;;;;;9.33;4.23;;;;;;;;;;10490957;28;20315;-71
2021/04/26 21:40:52;;;;;;;7.57;3.67;;;;;;;;;;10488405;28;20311;-71
2021/04/26 21:45:54;;;;;;;9.10;3.63;;;;;;;;;;10491308;28;20265;-71
2021/04/26 21:50:56;;;;;;;7.67;3.43;;;;;;;;;;10486592;28;20329;-72
2021/04/26 21:55:58;;;;;;;9.03;3.40;;;;;;;;;;10488246;28;20210;-71
2021/04/26 22:01:00;;;;;;;9.17;3.90;;;;;;;;;;10488669;28;20315;-70
2021/04/26 22:06:02;;;;;;;6.70;3.47;;;;;;;;;;10489947;28;20188;-73
2021/04/26 22:11:24;;;;;;;8.50;3.70;;;;;;;;;;10487683;28;20221;-70
2021/04/26 22:16:45;;;;;;;8.03;3.57;;;;;;;;;;10487843;28;20682;-71
2021/04/26 22:22:08;;;;;;;7.13;3.40;;;;;;;;;;10486260;28;20223;-70
2021/04/26 22:27:29;;;;;;;6.93;3.37;;;;;;;;;;10478533;28;20215;-70
2021/04/26 22:32:51;;;;;;;9.13;3.30;;;;;;;;;;10487262;28;20227;-71
2021/04/26 22:37:54;;;;;;;6.80;3.30;;;;;;;;;;10483324;28;20718;-71
2021/04/26 22:42:56;;;;;;;6.67;2.90;;;;;;;;;;10486557;28;20236;-71
2021/04/26 22:47:57;;;;;;;6.47;3.10;;;;;;;;;;10486182;28;20202;-72
2021/04/26 22:53:00;;;;;;;6.53;3.23;;;;;;;;;;10488136;28;20219;-70
2021/04/26 22:58:02;;;;;;;6.43;2.83;;;;;;;;;;10486186;28;20254;-69
2021/04/26 23:03:04;;;;;;;6.70;3.00;;;;;;;;;;10485611;28;20208;-70
2021/04/26 23:08:07;;;;;;;7.93;2.97;;;;;;;;;;10486300;28;20212;-70
2021/04/26 23:13:08;;;;;;;8.33;3.20;;;;;;;;;;10479108;28;20251;-73
2021/04/26 23:18:10;;;;;;;5.63;2.73;;;;;;;;;;10487817;28;20220;-70
2021/04/26 23:23:12;;;;;;;6.87;2.83;;;;;;;;;;10485265;28;20239;-72
2021/04/26 23:28:14;;;;;;;7.03;2.90;;;;;;;;;;10484175;28;20577;-70
2021/04/26 23:33:16;;;;;;;6.13;2.80;;;;;;;;;;10483404;28;20525;-71
2021/04/26 23:38:18;;;;;;;7.20;3.27;;;;;;;;;;10475278;28;20564;-70
2021/04/26 23:43:19;;;;;;;5.87;2.80;;;;;;;;;;10486993;28;20600;-70
2021/04/26 23:48:21;;;;;;;7.47;2.80;;;;;;;;;;10482267;28;20245;-71
2021/04/26 23:53:24;;;;;;;6.10;2.80;;;;;;;;;;10485759;28;20209;-69
2021/04/26 23:58:26;;;;;;;7.80;2.70;;;;;;;;;;10483197;28;20246;-71
